Portada
METAR-TAF:

METAR-TAF

Aeropuertos :

Carmi Municipal Airport

Carmi, Illinois, Estados Unidos

latitud: 38-05-22N, longitud: 088-07-23W, altitud: 118 m

Observación

El informe se hizo hace 41 minutos, a las 19:15 UTC
Viento 5 kt del sur-suroeste
Temperatura 32°C
Humedad 46%
Presión 1023 hPa
Visibilidad: 16.1 km
Cielo despejado

METAR: KCUL 191915Z AUTO 20005KT 10SM CLR 32/19 A3021 RMK AO2 T03240191

Hora: 14:56 (19:56 UTC)


TAF: falta

Observaciones y pronósticos meteorológicos de más de 4000 aeropuertos (mensajes METAR y TAF).

Los puntos amarillos y rojos representan las estaciones disponibles.

Ponga el ratón en el punto deseado para ver el nombre de la estación.

Haga clic para ver las observaciones y los pronósticos meteorológicos.

Para cambiar el mapa : haga clic en los botones verdes con una cruz de color negro para hacer un zoom, en el botón verde con un guión para alejar o en las flechas verdes para mapas adyacentes.


METAR-TAF: